createdAt,value
2017-10-11T00:01:52.941Z,7.00
2017-10-11T00:04:19.612Z,6.30
2017-10-11T00:06:46.253Z,6.77
2017-10-11T00:09:12.926Z,7.63
2017-10-11T00:11:39.625Z,7.03
2017-10-11T00:14:06.372Z,6.10
2017-10-11T00:16:33.013Z,6.77
2017-10-11T00:18:59.681Z,7.13
2017-10-11T00:21:26.326Z,7.20
2017-10-11T00:23:52.965Z,6.80
2017-10-11T00:26:19.620Z,7.60
2017-10-11T00:28:46.284Z,6.40
2017-10-11T00:31:12.945Z,7.93
2017-10-11T00:33:39.582Z,6.47
2017-10-11T00:36:06.356Z,7.33
2017-10-11T00:38:32.997Z,6.90
2017-10-11T00:40:59.658Z,7.00
2017-10-11T00:43:26.301Z,7.30
2017-10-11T00:45:53.046Z,7.80
2017-10-11T00:48:19.693Z,6.87
2017-10-11T00:50:46.357Z,6.63
2017-10-11T00:53:12.997Z,7.30
2017-10-11T00:55:39.628Z,6.70
2017-10-11T00:58:06.280Z,6.50
2017-10-11T01:00:32.925Z,6.40
2017-10-11T01:02:59.598Z,6.50
2017-10-11T01:05:26.249Z,6.50
2017-10-11T01:07:52.908Z,6.77
2017-10-11T01:10:19.549Z,6.97
2017-10-11T01:12:46.201Z,5.90
2017-10-11T01:15:12.846Z,6.50
2017-10-11T01:17:39.506Z,6.53
2017-10-11T01:20:06.137Z,5.50
2017-10-11T01:22:32.801Z,5.77
2017-10-11T01:24:59.436Z,6.10
2017-10-11T01:27:26.110Z,5.97
2017-10-11T01:29:52.857Z,7.37
2017-10-11T01:32:19.492Z,6.27
2017-10-11T01:34:46.149Z,7.30
2017-10-11T01:37:12.801Z,6.60
2017-10-11T01:39:39.457Z,5.43
2017-10-11T01:42:06.098Z,6.07
2017-10-11T01:44:32.761Z,6.20
2017-10-11T01:46:59.413Z,5.93
2017-10-11T01:49:26.070Z,6.37
2017-10-11T01:51:52.817Z,6.40
2017-10-11T01:54:19.469Z,7.30
2017-10-11T01:56:46.110Z,6.63
2017-10-11T01:59:12.776Z,5.80
2017-10-11T02:01:39.624Z,6.10
2017-10-11T02:04:06.270Z,5.30
2017-10-11T02:06:32.930Z,5.90
2017-10-11T02:08:59.570Z,6.60
2017-10-11T02:11:26.231Z,6.10
2017-10-11T02:13:52.881Z,5.70
2017-10-11T02:16:19.540Z,5.87
2017-10-11T02:18:46.184Z,5.00
2017-10-11T02:21:12.857Z,5.47
2017-10-11T02:23:39.493Z,5.20
2017-10-11T02:26:06.144Z,6.47
2017-10-11T02:28:32.781Z,5.90
2017-10-11T02:30:59.446Z,6.17
2017-10-11T02:33:26.093Z,6.37
2017-10-11T02:35:52.738Z,5.37
2017-10-11T02:38:19.483Z,5.27
2017-10-11T02:40:46.127Z,5.50
2017-10-11T02:43:12.880Z,5.37
2017-10-11T02:45:39.521Z,6.50
2017-10-11T02:48:06.181Z,5.80
2017-10-11T02:50:32.813Z,5.93
2017-10-11T02:52:59.493Z,5.40
2017-10-11T02:55:26.129Z,5.70
2017-10-11T02:57:52.789Z,5.37
2017-10-11T03:00:19.429Z,6.10
2017-10-11T03:02:46.060Z,5.60
2017-10-11T03:05:12.814Z,4.70
2017-10-11T03:07:39.454Z,5.40
2017-10-11T03:10:06.110Z,5.27
2017-10-11T03:12:32.752Z,6.20
2017-10-11T03:14:59.409Z,5.33
2017-10-11T03:17:26.108Z,5.13
2017-10-11T03:19:52.858Z,5.77
2017-10-11T03:22:19.504Z,5.80
2017-10-11T03:24:46.162Z,5.13
2017-10-11T03:27:12.809Z,4.90
2017-10-11T03:29:39.456Z,4.73
2017-10-11T03:32:06.105Z,5.70
2017-10-11T03:34:32.757Z,5.70
2017-10-11T03:36:59.408Z,5.13
2017-10-11T03:39:26.064Z,5.00
2017-10-11T03:41:52.808Z,5.53
2017-10-11T03:44:19.446Z,5.93
2017-10-11T03:46:46.101Z,4.60
2017-10-11T03:49:12.731Z,5.20
2017-10-11T03:51:39.376Z,4.33
2017-10-11T03:54:06.004Z,5.70
2017-10-11T03:56:32.664Z,5.90
2017-10-11T03:58:59.369Z,5.30
2017-10-11T04:01:26.018Z,5.20
2017-10-11T04:03:52.651Z,4.60
2017-10-11T04:06:19.317Z,4.10
2017-10-11T04:08:45.971Z,5.40
2017-10-11T04:11:12.605Z,4.43
2017-10-11T04:13:39.253Z,4.40
2017-10-11T04:16:05.882Z,4.73
2017-10-11T04:18:32.537Z,5.17
2017-10-11T04:20:59.169Z,5.30
2017-10-11T04:23:25.829Z,5.10
2017-10-11T04:25:52.465Z,5.70
2017-10-11T04:28:19.114Z,4.90
2017-10-11T04:30:45.749Z,4.20
2017-10-11T04:33:12.397Z,4.80
2017-10-11T04:35:39.044Z,5.40
2017-10-11T04:38:05.692Z,5.00
2017-10-11T04:40:32.324Z,4.50
2017-10-11T04:42:58.981Z,5.13
2017-10-11T04:45:25.617Z,4.37
2017-10-11T04:47:52.272Z,4.43
2017-10-11T04:50:18.901Z,4.63
2017-10-11T04:52:45.537Z,4.80
2017-10-11T04:55:12.233Z,4.80
2017-10-11T04:57:38.861Z,4.80
2017-10-11T05:00:05.524Z,4.60
2017-10-11T05:02:32.156Z,3.80
2017-10-11T05:04:58.837Z,5.20
2017-10-11T05:07:25.469Z,4.93
2017-10-11T05:09:52.117Z,4.83
2017-10-11T05:12:18.748Z,4.07
2017-10-11T05:14:45.399Z,5.00
2017-10-11T05:17:12.033Z,4.47
2017-10-11T05:19:38.689Z,4.50
2017-10-11T05:22:05.320Z,4.80
2017-10-11T05:24:31.972Z,4.40
2017-10-11T05:26:58.616Z,5.00
2017-10-11T05:29:25.336Z,4.40
2017-10-11T05:31:52.090Z,4.13
2017-10-11T05:34:18.750Z,3.83
2017-10-11T05:36:45.398Z,4.80
2017-10-11T05:39:12.033Z,3.73
2017-10-11T05:41:39.303Z,3.77
2017-10-11T05:44:05.944Z,4.70
2017-10-11T05:46:32.609Z,3.60
2017-10-11T05:48:59.277Z,5.20
2017-10-11T05:51:25.905Z,3.67
2017-10-11T05:53:52.559Z,3.73
2017-10-11T05:56:19.189Z,4.37
2017-10-11T05:58:45.840Z,4.00
2017-10-11T06:01:12.512Z,4.73
2017-10-11T06:03:39.265Z,4.60
2017-10-11T06:06:05.903Z,3.80
2017-10-11T06:08:32.556Z,4.40
2017-10-11T06:10:59.184Z,4.50
2017-10-11T06:13:25.849Z,4.20
2017-10-11T06:15:52.533Z,3.70
2017-10-11T06:18:19.168Z,4.27
2017-10-11T06:20:45.818Z,5.00
2017-10-11T06:23:12.453Z,4.50
2017-10-11T06:25:39.105Z,3.70
2017-10-11T06:28:05.746Z,4.67
2017-10-11T06:30:32.438Z,5.10
2017-10-11T06:32:59.078Z,6.20
2017-10-11T06:35:25.727Z,5.97
2017-10-11T06:37:52.364Z,5.30
2017-10-11T06:40:19.021Z,4.40
2017-10-11T06:42:45.680Z,4.30
2017-10-11T06:45:12.424Z,5.70
2017-10-11T06:47:39.061Z,5.13
2017-10-11T06:50:05.732Z,4.53
2017-10-11T06:52:32.385Z,4.40
2017-10-11T06:54:59.033Z,5.80
2017-10-11T06:57:25.786Z,4.10
2017-10-11T06:59:52.433Z,4.80
2017-10-11T07:02:19.120Z,4.13
2017-10-11T07:04:45.756Z,4.70
2017-10-11T07:07:12.412Z,4.60
2017-10-11T07:09:39.041Z,4.97
2017-10-11T07:12:05.695Z,4.97
2017-10-11T07:14:32.324Z,4.57
2017-10-11T07:16:58.997Z,4.13
2017-10-11T07:19:25.641Z,4.60
2017-10-11T07:21:52.287Z,4.87
2017-10-11T07:24:18.932Z,5.40
2017-10-11T07:26:45.598Z,6.10
2017-10-11T07:29:12.272Z,6.23
2017-10-11T07:31:38.914Z,5.90
2017-10-11T07:34:05.582Z,6.73
2017-10-11T07:36:32.305Z,4.90
2017-10-11T07:38:59.004Z,4.83
2017-10-11T07:41:25.709Z,4.70
2017-10-11T07:43:52.340Z,5.80
2017-10-11T07:46:18.992Z,5.40
2017-10-11T07:48:45.640Z,5.53
2017-10-11T07:51:12.310Z,5.30
2017-10-11T07:53:38.953Z,5.50
2017-10-11T07:56:05.613Z,5.07
2017-10-11T07:58:32.253Z,4.67
2017-10-11T08:00:58.905Z,6.10
2017-10-11T08:03:25.540Z,4.97
2017-10-11T08:05:52.196Z,4.77
2017-10-11T08:08:18.835Z,4.90
2017-10-11T08:10:45.500Z,5.13
2017-10-11T08:13:12.149Z,4.73
2017-10-11T08:15:38.808Z,4.87
2017-10-11T08:18:05.560Z,5.00
2017-10-11T08:20:32.188Z,5.27
2017-10-11T08:22:58.880Z,4.30
2017-10-11T08:25:25.513Z,4.97
2017-10-11T08:27:52.180Z,5.10
2017-10-11T08:30:18.813Z,4.80
2017-10-11T08:32:45.573Z,5.83
2017-10-11T08:35:14.081Z,5.50
2017-10-11T08:37:40.729Z,4.53
2017-10-11T08:40:07.368Z,5.37
2017-10-11T08:42:34.025Z,5.40
2017-10-11T08:45:00.672Z,5.20
2017-10-11T08:47:27.312Z,5.80
2017-10-11T08:49:53.960Z,4.80
2017-10-11T08:52:20.627Z,5.37
2017-10-11T08:54:47.277Z,4.50
2017-10-11T08:57:13.925Z,4.90
2017-10-11T08:59:40.600Z,5.20
2017-10-11T09:02:07.237Z,4.73
2017-10-11T09:04:33.884Z,4.90
2017-10-11T09:07:00.530Z,5.50
2017-10-11T09:09:27.273Z,4.03
2017-10-11T09:11:53.917Z,4.97
2017-10-11T09:14:20.565Z,5.10
2017-10-11T09:16:47.195Z,5.00
2017-10-11T09:19:13.864Z,4.87
2017-10-11T09:21:40.505Z,5.53
2017-10-11T09:24:07.145Z,4.67
2017-10-11T09:26:33.796Z,5.23
2017-10-11T09:29:00.437Z,5.00
2017-10-11T09:31:27.133Z,5.50
2017-10-11T09:33:53.773Z,4.87
2017-10-11T09:36:20.424Z,5.03
2017-10-11T09:38:47.061Z,5.80
2017-10-11T09:41:13.717Z,5.00
2017-10-11T09:43:40.345Z,5.00
2017-10-11T09:46:07.001Z,5.10
2017-10-11T09:48:33.649Z,4.50
2017-10-11T09:51:00.305Z,4.90
2017-10-11T09:53:26.992Z,5.13
2017-10-11T09:55:53.637Z,5.13
2017-10-11T09:58:20.294Z,4.60
2017-10-11T10:00:46.937Z,6.20
2017-10-11T10:03:13.596Z,4.90
2017-10-11T10:05:40.230Z,4.63
2017-10-11T10:08:06.890Z,5.03
2017-10-11T10:10:33.524Z,4.90
2017-10-11T10:13:00.178Z,5.37
2017-10-11T10:15:26.812Z,4.70
2017-10-11T10:17:53.607Z,4.33
2017-10-11T10:20:20.240Z,4.60
2017-10-11T10:22:46.890Z,4.70
2017-10-11T10:25:13.530Z,5.30
2017-10-11T10:27:40.185Z,4.50
2017-10-11T10:30:06.849Z,4.63
2017-10-11T10:32:33.505Z,4.87
2017-10-11T10:35:00.158Z,5.30
2017-10-11T10:37:26.801Z,4.27
2017-10-11T10:39:53.457Z,4.30
2017-10-11T10:42:20.097Z,4.73
2017-10-11T10:44:46.749Z,4.37
2017-10-11T10:47:13.381Z,4.83
2017-10-11T10:49:40.378Z,4.50
2017-10-11T10:52:07.126Z,4.60
2017-10-11T10:54:33.861Z,6.03
2017-10-11T10:57:00.526Z,4.37
2017-10-11T10:59:27.181Z,4.20
2017-10-11T11:01:53.819Z,4.60
2017-10-11T11:04:20.568Z,4.67
2017-10-11T11:06:47.213Z,4.80
2017-10-11T11:09:13.876Z,5.03
2017-10-11T11:11:40.508Z,4.37
2017-10-11T11:14:07.177Z,4.70
2017-10-11T11:16:33.830Z,4.10
2017-10-11T11:19:00.465Z,4.47
2017-10-11T11:21:27.118Z,4.30
2017-10-11T11:23:53.781Z,4.50
2017-10-11T11:26:20.430Z,4.30
2017-10-11T11:28:47.065Z,4.67
2017-10-11T11:31:13.728Z,4.27
2017-10-11T11:33:40.365Z,4.50
2017-10-11T11:36:07.013Z,4.67
2017-10-11T11:38:33.648Z,4.97
2017-10-11T11:41:00.297Z,4.40
2017-10-11T11:43:26.928Z,4.80
2017-10-11T11:45:53.558Z,4.73
2017-10-11T11:48:20.377Z,3.87
2017-10-11T11:50:47.013Z,4.37
2017-10-11T11:53:13.660Z,3.73
2017-10-11T11:55:40.298Z,3.50
2017-10-11T11:58:06.980Z,3.97
2017-10-11T12:00:33.609Z,4.20
2017-10-11T12:03:00.261Z,4.00
2017-10-11T12:05:26.897Z,3.70
2017-10-11T12:07:53.549Z,4.40
2017-10-11T12:10:20.241Z,3.77
2017-10-11T12:12:46.898Z,4.37
2017-10-11T12:15:13.541Z,4.10
2017-10-11T12:17:40.181Z,4.27
2017-10-11T12:20:06.833Z,3.97
2017-10-11T12:22:33.465Z,4.07
2017-10-11T12:25:00.125Z,4.70
2017-10-11T12:27:26.790Z,4.30
2017-10-11T12:29:53.542Z,4.73
2017-10-11T12:32:20.177Z,3.90
2017-10-11T12:34:46.829Z,4.17
2017-10-11T12:37:13.497Z,3.87
2017-10-11T12:39:40.245Z,3.80
2017-10-11T12:42:06.878Z,3.73
2017-10-11T12:44:33.534Z,4.20
2017-10-11T12:47:00.196Z,3.90
2017-10-11T12:49:26.833Z,4.70
2017-10-11T12:51:53.486Z,3.73
2017-10-11T12:54:20.149Z,4.23
2017-10-11T12:56:46.900Z,3.80
2017-10-11T12:59:13.552Z,3.80
2017-10-11T13:01:40.206Z,3.80
2017-10-11T13:04:06.836Z,3.90
2017-10-11T13:06:33.504Z,3.60
2017-10-11T13:09:00.142Z,4.10
2017-10-11T13:11:26.801Z,3.87
2017-10-11T13:13:53.465Z,4.37
2017-10-11T13:16:20.209Z,4.13
2017-10-11T13:18:46.856Z,3.30
2017-10-11T13:21:13.522Z,3.90
2017-10-11T13:23:40.261Z,3.83
2017-10-11T13:26:06.888Z,4.13
2017-10-11T13:28:33.565Z,3.80
2017-10-11T13:31:00.196Z,3.50
2017-10-11T13:33:26.845Z,4.00
2017-10-11T13:35:53.517Z,3.87
2017-10-11T13:38:20.157Z,3.73
2017-10-11T13:40:46.809Z,3.47
2017-10-11T13:43:13.472Z,3.90
2017-10-11T13:45:40.133Z,3.90
2017-10-11T13:48:06.764Z,3.87
2017-10-11T13:50:33.517Z,3.83
2017-10-11T13:53:00.154Z,3.67
2017-10-11T13:55:26.810Z,3.73
2017-10-11T13:57:53.444Z,4.13
2017-10-11T14:00:20.104Z,3.07
2017-10-11T14:02:46.785Z,3.77
2017-10-11T14:05:13.416Z,3.97
2017-10-11T14:07:40.069Z,3.80
2017-10-11T14:10:06.696Z,4.40
2017-10-11T14:12:33.385Z,3.37
2017-10-11T14:15:00.023Z,3.70
2017-10-11T14:17:26.694Z,4.10
2017-10-11T14:19:53.329Z,3.23
2017-10-11T14:22:19.989Z,3.03
2017-10-11T14:24:46.630Z,4.10
2017-10-11T14:27:13.264Z,3.43
2017-10-11T14:29:39.912Z,4.43
2017-10-11T14:32:06.544Z,3.60
2017-10-11T14:34:33.198Z,3.30
2017-10-11T14:36:59.842Z,3.20
2017-10-11T14:39:26.497Z,3.90
2017-10-11T14:41:53.130Z,3.53
2017-10-11T14:44:19.777Z,3.10
2017-10-11T14:46:46.492Z,3.40
2017-10-11T14:49:13.196Z,3.77
2017-10-11T14:51:39.838Z,3.40
2017-10-11T14:54:06.477Z,3.20
2017-10-11T14:56:33.205Z,3.90
2017-10-11T14:58:59.832Z,3.00
2017-10-11T15:01:26.488Z,3.33
2017-10-11T15:03:53.117Z,3.67
2017-10-11T15:06:19.772Z,3.57
2017-10-11T15:08:46.437Z,3.63
2017-10-11T15:11:13.089Z,3.23
2017-10-11T15:13:39.744Z,3.33
2017-10-11T15:16:06.596Z,3.67
2017-10-11T15:18:33.253Z,3.43
2017-10-11T15:20:59.885Z,2.90
2017-10-11T15:23:26.660Z,3.40
2017-10-11T15:25:53.292Z,3.57
2017-10-11T15:28:19.941Z,2.97
2017-10-11T15:30:46.609Z,3.30
2017-10-11T15:33:13.360Z,3.80
2017-10-11T15:35:39.993Z,2.90
2017-10-11T15:38:06.764Z,3.13
2017-10-11T15:40:33.425Z,3.33
2017-10-11T15:43:00.345Z,3.13
2017-10-11T15:45:27.020Z,3.83
2017-10-11T15:47:53.657Z,3.33
2017-10-11T15:50:20.308Z,3.00
2017-10-11T15:52:47.074Z,3.50
2017-10-11T15:55:13.830Z,3.70
2017-10-11T15:57:40.466Z,3.30
2017-10-11T16:00:07.113Z,3.37
2017-10-11T16:02:33.765Z,3.60
2017-10-11T16:05:00.402Z,2.87
2017-10-11T16:07:27.053Z,3.13
2017-10-11T16:09:53.685Z,2.90
2017-10-11T16:12:20.389Z,3.00
2017-10-11T16:14:47.355Z,3.03
2017-10-11T16:17:14.009Z,3.23
2017-10-11T16:19:40.644Z,3.63
2017-10-11T16:22:07.292Z,3.70
2017-10-11T16:24:34.039Z,2.83
2017-10-11T16:27:00.677Z,2.90
2017-10-11T16:29:27.329Z,3.43
2017-10-11T16:31:53.962Z,3.57
2017-10-11T16:34:20.649Z,3.37
2017-10-11T16:36:47.281Z,3.37
2017-10-11T16:39:13.944Z,3.13
2017-10-11T16:41:40.576Z,3.10
2017-10-11T16:44:07.212Z,3.17
2017-10-11T16:46:33.868Z,3.17
2017-10-11T16:49:00.508Z,3.47
2017-10-11T16:51:27.165Z,3.30
2017-10-11T16:53:53.809Z,3.07
2017-10-11T16:56:20.492Z,3.00
2017-10-11T16:58:47.122Z,2.93
2017-10-11T17:01:13.777Z,2.97
2017-10-11T17:03:40.408Z,2.83
2017-10-11T17:06:07.042Z,3.60
2017-10-11T17:08:33.709Z,3.50
2017-10-11T17:11:00.410Z,2.73
2017-10-11T17:13:27.157Z,2.67
2017-10-11T17:15:53.784Z,3.50
2017-10-11T17:18:20.428Z,3.53
2017-10-11T17:20:47.361Z,3.13
2017-10-11T17:23:14.021Z,3.07
2017-10-11T17:25:40.652Z,3.23
2017-10-11T17:28:07.305Z,3.50
2017-10-11T17:30:33.942Z,2.83
2017-10-11T17:33:00.673Z,3.13
2017-10-11T17:35:27.420Z,3.13
2017-10-11T17:37:54.074Z,2.77
2017-10-11T17:40:20.726Z,2.70
2017-10-11T17:42:47.481Z,3.30
2017-10-11T17:45:14.232Z,3.17
2017-10-11T17:47:40.869Z,2.60
2017-10-11T17:50:07.501Z,3.47
2017-10-11T17:52:34.149Z,3.10
2017-10-11T17:55:00.789Z,2.90
2017-10-11T17:57:27.440Z,2.70
2017-10-11T17:59:54.077Z,3.73
2017-10-11T18:02:20.741Z,3.20
2017-10-11T18:04:47.441Z,2.70
2017-10-11T18:07:14.108Z,2.63
2017-10-11T18:09:40.736Z,3.70
2017-10-11T18:12:07.373Z,3.27
2017-10-11T18:14:34.025Z,3.10
2017-10-11T18:17:00.657Z,2.90
2017-10-11T18:19:27.305Z,2.47
2017-10-11T18:21:54.092Z,3.20
2017-10-11T18:24:20.846Z,2.90
2017-10-11T18:26:47.483Z,2.97
2017-10-11T18:29:14.137Z,3.27
2017-10-11T18:31:40.772Z,2.87
2017-10-11T18:34:07.450Z,3.10
2017-10-11T18:36:34.105Z,2.37
2017-10-11T18:39:00.857Z,3.20
2017-10-11T18:41:27.507Z,3.30
2017-10-11T18:43:54.190Z,2.63
2017-10-11T18:46:20.841Z,2.70
2017-10-11T18:48:47.481Z,2.93
2017-10-11T18:51:14.129Z,2.60
2017-10-11T18:53:40.769Z,2.73
2017-10-11T18:56:07.418Z,2.40
2017-10-11T18:58:34.053Z,2.40
2017-10-11T19:01:00.709Z,2.70
2017-10-11T19:03:27.344Z,2.90
2017-10-11T19:05:54.016Z,2.47
2017-10-11T19:08:20.653Z,2.53
2017-10-11T19:10:47.284Z,3.03
2017-10-11T19:15:46.948Z,3.13
2017-10-11T19:18:13.612Z,2.63
2017-10-11T19:20:40.258Z,2.87
2017-10-11T19:23:06.917Z,2.27
2017-10-11T19:25:33.574Z,2.53
2017-10-11T19:28:00.223Z,2.80
2017-10-11T19:30:26.873Z,2.37
2017-10-11T19:32:53.619Z,2.40
2017-10-11T19:35:21.145Z,2.47
2017-10-11T19:37:47.778Z,2.60
2017-10-11T19:40:14.428Z,2.53
2017-10-11T19:42:41.060Z,2.60
2017-10-11T19:45:07.708Z,2.77
2017-10-11T19:47:34.344Z,2.67
2017-10-11T19:50:01.005Z,2.57
2017-10-11T19:52:27.642Z,2.37
2017-10-11T19:54:54.277Z,2.37
2017-10-11T19:57:20.933Z,2.43
2017-10-11T19:59:47.561Z,2.47
2017-10-11T20:02:14.208Z,2.60
2017-10-11T20:04:40.846Z,2.20
2017-10-11T20:07:07.496Z,2.47
2017-10-11T20:09:34.133Z,2.60
2017-10-11T20:12:00.850Z,2.70
2017-10-11T20:14:27.485Z,2.40
2017-10-11T20:16:54.150Z,2.87
2017-10-11T20:19:20.780Z,2.67
2017-10-11T20:21:47.452Z,2.47
2017-10-11T20:24:14.085Z,1.73
2017-10-11T20:26:40.716Z,2.50
2017-10-11T20:29:07.390Z,2.23
2017-10-11T20:31:34.021Z,2.10
2017-10-11T20:34:00.677Z,2.30
2017-10-11T20:36:27.313Z,2.47
2017-10-11T20:38:53.969Z,2.23
2017-10-11T20:41:20.660Z,2.50
2017-10-11T20:43:47.408Z,2.60
2017-10-11T20:46:14.057Z,2.27
2017-10-11T20:48:40.713Z,2.20
2017-10-11T20:51:07.360Z,2.70
2017-10-11T20:53:34.017Z,2.43
2017-10-11T20:56:00.668Z,2.27
2017-10-11T20:58:27.296Z,2.40
2017-10-11T21:00:53.949Z,2.33
2017-10-11T21:03:20.617Z,2.03
2017-10-11T21:05:47.270Z,2.80
2017-10-11T21:08:13.922Z,1.83
2017-10-11T21:10:40.568Z,2.40
2017-10-11T21:13:07.201Z,2.00
2017-10-11T21:15:33.866Z,2.10
2017-10-11T21:18:00.501Z,2.53
2017-10-11T21:20:27.281Z,2.50
2017-10-11T21:22:53.933Z,2.77
2017-10-11T21:25:20.569Z,2.50
2017-10-11T21:27:47.216Z,2.00
2017-10-11T21:30:13.849Z,2.37
2017-10-11T21:32:40.525Z,2.40
2017-10-11T21:35:07.161Z,2.27
2017-10-11T21:37:33.812Z,2.20
2017-10-11T21:40:00.449Z,1.80
2017-10-11T21:42:27.097Z,1.83
2017-10-11T21:44:53.753Z,2.90
2017-10-11T21:47:20.388Z,2.47
2017-10-11T21:49:47.040Z,2.80
2017-10-11T21:52:13.680Z,2.40
2017-10-11T21:54:40.336Z,2.20
2017-10-11T21:57:06.973Z,2.00
2017-10-11T21:59:33.622Z,2.10
2017-10-11T22:02:00.252Z,2.40
2017-10-11T22:04:26.910Z,2.00
2017-10-11T22:06:53.635Z,2.30
2017-10-11T22:09:20.270Z,2.17
2017-10-11T22:11:52.882Z,2.97
2017-10-11T22:14:19.513Z,2.23
2017-10-11T22:16:46.166Z,2.60
2017-10-11T22:19:12.838Z,2.23
2017-10-11T22:21:39.490Z,1.87
2017-10-11T22:24:06.232Z,2.30
2017-10-11T22:26:32.885Z,1.97
2017-10-11T22:28:59.521Z,2.50
2017-10-11T22:31:26.175Z,2.00
2017-10-11T22:33:52.813Z,2.20
2017-10-11T22:36:19.477Z,2.30
2017-10-11T22:38:46.236Z,2.60
2017-10-11T22:41:12.877Z,2.20
2017-10-11T22:43:39.525Z,2.30
2017-10-11T22:46:06.165Z,2.40
2017-10-11T22:48:32.830Z,2.40
2017-10-11T22:50:59.493Z,2.23
2017-10-11T22:53:26.153Z,2.43
2017-10-11T22:55:52.894Z,3.20
2017-10-11T22:58:19.640Z,2.20
2017-10-11T23:00:46.300Z,2.90
2017-10-11T23:03:12.953Z,2.40
2017-10-11T23:05:39.602Z,2.23
2017-10-11T23:08:06.355Z,2.07
2017-10-11T23:10:33.001Z,1.90
2017-10-11T23:12:59.628Z,2.23
2017-10-11T23:15:26.276Z,2.27
2017-10-11T23:17:52.913Z,2.53
2017-10-11T23:20:19.569Z,2.23
2017-10-11T23:22:46.213Z,2.47
2017-10-11T23:25:12.869Z,2.63
2017-10-11T23:27:39.557Z,2.07
2017-10-11T23:30:06.240Z,2.33
2017-10-11T23:32:32.874Z,2.40
2017-10-11T23:34:59.613Z,2.63
2017-10-11T23:37:26.248Z,1.93
2017-10-11T23:39:52.885Z,2.30
2017-10-11T23:42:19.545Z,2.67
2017-10-11T23:44:46.181Z,2.03
2017-10-11T23:47:12.829Z,2.83
2017-10-11T23:49:39.469Z,2.17
2017-10-11T23:52:06.121Z,2.00
2017-10-11T23:54:32.808Z,2.40
2017-10-11T23:56:59.464Z,2.33
2017-10-11T23:59:26.105Z,2.10
